AirNav   Pilot Hours Calculator
 
 1268 users online  

CL96 Vaca Valley Hospital Heliport
Vacaville, California, USA

GOING TO VACAVILLE?


FAA INFORMATION EFFECTIVE 28 MARCH 2019

Location

FAA Identifier: CL96
Lat/Long: 38-21-19.1700N / 121-57-04.1500W
38-21.319500N / 121-57.069167W
38.3553250 / -121.9511528
(estimated)
Elevation: 110 ft. / 34 m (estimated)
Variation: 16E (1985)
From city: 2 miles E of VACAVILLE, CA
Time zone: UTC -7 (UTC -8 during Standard Time)
Zip code: 95687

Heliport Operations

Heliport use: Private use, MEDICAL
Activation date: 08/1987
Control tower: no
ARTCC: OAKLAND CENTER
FSS: RANCHO MURIETA FLIGHT SERVICE STATION
Attendance: CONTINUOUS
Wind indicator: yes
Segmented circle: no
Lights: FOR PERI LGTS CALL 707-624-7072; IF UNA, CALL 707-624-7813.

Heliport Communications

WX ASOS at VCB (1.5 nm N): 134.75 (707-448-1594)
WX AWOS-3 at EDU (13 nm NE): 119.025 (530-754-6839)
WX AWOS-3 at DWA (14 nm N): 125.775 (530-750-2759)
WX AWOS-AV at O88 (15 nm SE): 127.075 (707-374-5396)
WX ASOS at APC (18 nm SW): PHONE 707-252-7916

Nearby radio navigation aids

VOR radial/distance  VOR name  Freq  Var
CCRr356/19.1CONCORD VOR/DME117.0017E
SACr237/19.5SACRAMENTO VORTAC115.2017E
SGDr045/22.5SCAGGS ISLAND VORTAC112.1017E
MCCr217/31.8MC CLELLAN VOR/DME109.2017E
OAKr002/39.9OAKLAND VOR/DME116.8017E

Heliport Services

Runway Information

Helipad H1

Dimensions: 40 x 40 ft. / 12 x 12 m
Surface: concrete
Runway edge lights: PERI
Runway edge markings: RED H IN WHITE CROSS.
Operational restrictions: APCH-DEP PATHS 073 DEG AND 163 DEG MAG; BOTH CLEAR +08:1.
Latitude: 38-21.319500N
Longitude: 121-57.069167W
Elevation: 110.0 ft.
Traffic pattern: leftleft

Heliport Ownership and Management from official FAA records

Ownership: Privately-owned
Owner: VACA VALLEY HOSPITAL
1000 NUT TREE ROAD
VACAVILLE, CA 95687
Phone 707-624-7000
Manager: GREG DUNCAN
1000 NUT TREE ROAD
VACAVILLE, CA 95687
Phone 707-646-5660
ADDITIONAL CONTACT: HENRY TRUDEL 707-646-5665 HENRY.TRUDEL@NORTHBAY.ORG

Instrument Procedures

There are no published instrument procedures at CL96.

Some nearby airports with instrument procedures:

KVCB - Nut Tree Airport (1 nm N)
KSUU - Travis Air Force Base (6 nm S)
KEDU - University Airport (13 nm NE)
KDWA - Yolo County Airport (14 nm N)
O88 - Rio Vista Municipal Airport (15 nm SE)
KAPC - Napa County Airport (18 nm SW)
O41 - Watts-Woodland Airport (19 nm N)
 
Loc | Ops | Rwys | IFR | FBO | Links
Com | Nav | Svcs | Stats | Notes

Sonoma Jet Center
 
Area around CL96 (Vaca Valley Hospital Heliport)
 
Road maps at: MapQuest Bing Google
 
Aerial photo
No photo
 
Sectional chart

 
Airport distance calculator
Flying to Vaca Valley Hospital Heliport? Find the distance to fly.

From to CL96

Sunrise and sunset
Times for 19-Apr-2019
 Local
(UTC-7)
 Zulu
(UTC)
Morning civil twilight06:0013:00
Sunrise06:2713:27
Sunset19:4702:47
Evening civil twilight20:1403:14

Current date and time
Zulu (UTC)  19-Apr-2019 13:51:59
Local (UTC-7)  19-Apr-2019 06:51:59
 
METAR
KVCB 
2nm N 
191253Z AUTO 35004KT 10SM CLR 12/11 A2996 RMK AO2 SLP144 T01170106
KSUU 
6nm S 
191256Z AUTO 28004KT 10SM CLR 12/10 A2995 RMK AO2 SLP149 T01180095 $
KEDU 
13nm NE 
191335Z AUTO 00000KT 10SM CLR 10/09 A2995 RMK AO1
KAPC 
18nm SW 
191254Z AUTO 12003KT 10SM CLR 10/09 A2997 RMK AO2 SLP141 T01000094
TAF
KSUU 
6nm S 
1911/2017 23009KT 9999 SKC QNH2984INS BECMG 1922/1923 23012KT 9999 SKC QNH2981INS BECMG 2007/2008 24010G15KT 9999 SKC QNH2981INS TX26/1922Z TN10/1914Z
NOTAMs
Click for the latest NOTAMs
NOTAMs are issued by the DoD/FAA and will open in a separate window not controlled by AirNav.

 

 
 

Would you like to see your business listed on this page?

 If your business provides an interesting product or service to pilots, flight crews, aircraft, or users of the Vaca Valley Hospital Heliport, you should consider listing it here.  To start the listing process, click on the button below
 
Add a business
 

Other Pages about Vaca Valley Hospital Heliport

Update a link
 
Copyright © AirNav, LLC. All rights reserved. Privacy Policy  Contact